createdAt,value
2022-09-28T00:00:54.067Z,12.77
2022-09-28T00:04:55.183Z,12.10
2022-09-28T00:08:57.175Z,11.27
2022-09-28T00:13:00.767Z,12.13
2022-09-28T00:17:02.014Z,11.57
2022-09-28T00:21:07.570Z,11.13
2022-09-28T00:25:09.259Z,12.07
2022-09-28T00:29:16.772Z,12.57
2022-09-28T00:33:18.746Z,11.57
2022-09-28T00:37:20.079Z,15.43
2022-09-28T00:41:22.066Z,10.50
2022-09-28T00:45:25.681Z,11.73
2022-09-28T00:49:30.744Z,8.33
2022-09-28T00:53:35.915Z,7.77
2022-09-28T00:57:39.263Z,8.30
2022-09-28T01:01:40.486Z,6.93
2022-09-28T01:05:42.920Z,6.47
2022-09-28T01:09:45.399Z,8.17
2022-09-28T01:13:49.638Z,6.57
2022-09-28T01:18:23.358Z,7.00
2022-09-28T01:22:51.012Z,5.40
2022-09-28T01:27:17.118Z,5.33
2022-09-28T01:31:21.722Z,5.43
2022-09-28T01:35:30.618Z,4.90
2022-09-28T01:39:38.293Z,4.77
2022-09-28T01:43:43.319Z,4.67
2022-09-28T01:47:46.790Z,4.73
2022-09-28T01:52:06.474Z,4.20
2022-09-28T01:56:14.502Z,4.00
2022-09-28T02:00:18.755Z,3.60
2022-09-28T02:04:26.444Z,3.20
2022-09-28T02:08:37.372Z,4.10
2022-09-28T02:12:42.324Z,4.17
2022-09-28T02:16:46.492Z,3.70
2022-09-28T02:21:06.330Z,3.97
2022-09-28T02:25:26.542Z,3.97
2022-09-28T02:29:27.721Z,2.67
2022-09-28T02:33:40.760Z,2.53
2022-09-28T02:37:42.904Z,1.70
2022-09-28T02:41:47.883Z,2.50
2022-09-28T02:46:21.513Z,1.87
2022-09-28T02:50:53.761Z,5.13
2022-09-28T02:55:33.520Z,2.00
2022-09-28T02:59:47.781Z,3.37
2022-09-28T03:03:52.688Z,2.57
2022-09-28T03:08:00.048Z,3.03
2022-09-28T03:12:10.720Z,3.27
2022-09-28T03:16:17.654Z,3.57
2022-09-28T03:20:19.345Z,3.27
2022-09-28T03:24:20.444Z,4.63
2022-09-28T03:28:22.227Z,3.63
2022-09-28T03:32:23.247Z,3.73
2022-09-28T03:36:24.650Z,3.67
2022-09-28T03:40:25.770Z,3.83
2022-09-28T03:44:27.027Z,5.20
2022-09-28T03:48:32.631Z,4.73
2022-09-28T03:52:33.702Z,4.17
2022-09-28T03:56:34.881Z,4.03
2022-09-28T04:00:38.152Z,4.40
2022-09-28T04:04:39.115Z,6.00
2022-09-28T04:08:40.121Z,3.43
2022-09-28T04:12:41.074Z,4.07
2022-09-28T04:16:42.090Z,5.97
2022-09-28T04:20:45.018Z,3.83
2022-09-28T04:24:46.124Z,5.60
2022-09-28T04:29:06.944Z,4.20
2022-09-28T04:33:08.012Z,6.63
2022-09-28T04:37:08.960Z,4.83
2022-09-28T04:41:11.259Z,3.40
2022-09-28T04:45:12.181Z,5.33
2022-09-28T04:49:13.295Z,9.57
2022-09-28T04:53:14.462Z,6.17
2022-09-28T04:57:15.429Z,6.17
2022-09-28T05:01:19.270Z,7.83
2022-09-28T05:05:20.468Z,8.43
2022-09-28T05:09:21.395Z,11.90
2022-09-28T05:13:22.347Z,6.13
2022-09-28T05:17:23.326Z,13.93
2022-09-28T05:21:25.822Z,6.73
2022-09-28T05:25:26.850Z,7.13
2022-09-28T05:29:31.902Z,9.10
2022-09-28T05:33:31.919Z,4.90
2022-09-28T05:37:33.046Z,9.37
2022-09-28T05:41:34.023Z,6.37
2022-09-28T05:45:35.191Z,6.50
2022-09-28T05:49:36.132Z,5.37
2022-09-28T05:53:37.079Z,8.03
2022-09-28T05:57:38.447Z,8.83
2022-09-28T06:01:39.475Z,7.43
2022-09-28T06:05:40.959Z,8.23
2022-09-28T06:09:42.020Z,9.23
2022-09-28T06:13:43.021Z,9.50
2022-09-28T06:17:44.013Z,7.90
2022-09-28T06:21:47.093Z,12.13
2022-09-28T06:25:48.162Z,8.57
2022-09-28T06:29:49.202Z,8.93
2022-09-28T06:33:51.093Z,7.93
2022-09-28T06:37:52.459Z,6.23
2022-09-28T06:41:53.344Z,6.80
2022-09-28T06:45:54.602Z,8.23
2022-09-28T06:49:55.614Z,5.80
2022-09-28T06:53:56.872Z,4.13
2022-09-28T06:58:03.683Z,5.80
2022-09-28T07:02:04.784Z,3.27
2022-09-28T07:06:05.975Z,4.67
2022-09-28T07:10:10.481Z,5.53
2022-09-28T07:14:19.269Z,5.03
2022-09-28T07:18:14.995Z,4.87
2022-09-28T07:22:18.777Z,5.60
2022-09-28T07:26:22.999Z,5.90
2022-09-28T07:30:23.776Z,4.67
2022-09-28T07:34:25.001Z,5.07
2022-09-28T07:38:26.535Z,7.80
2022-09-28T07:42:29.229Z,10.83
2022-09-28T07:46:34.389Z,4.43
2022-09-28T07:50:35.314Z,4.47
2022-09-28T07:54:38.296Z,4.07
2022-09-28T07:58:39.512Z,4.63
2022-09-28T08:02:40.671Z,4.47
2022-09-28T08:06:43.038Z,3.93
2022-09-28T08:10:47.332Z,5.40
2022-09-28T08:14:48.544Z,4.00
2022-09-28T08:18:49.792Z,5.10
2022-09-28T08:22:50.926Z,4.57
2022-09-28T08:26:52.813Z,4.27
2022-09-28T08:30:54.025Z,4.17
2022-09-28T08:34:55.417Z,6.27
2022-09-28T08:38:56.569Z,4.43
2022-09-28T08:43:07.470Z,6.77
2022-09-28T08:47:36.994Z,3.20
2022-09-28T08:52:02.381Z,5.77
2022-09-28T08:56:06.929Z,3.77
2022-09-28T09:00:12.068Z,3.67
2022-09-28T09:04:13.921Z,4.00
2022-09-28T09:08:27.784Z,2.10
2022-09-28T09:12:50.764Z,2.00
2022-09-28T09:17:07.399Z,3.77
2022-09-28T09:21:17.797Z,4.13
2022-09-28T09:25:25.311Z,3.03
2022-09-28T09:29:52.573Z,3.70
2022-09-28T09:34:11.522Z,3.40
2022-09-28T09:38:28.231Z,3.73
2022-09-28T09:42:41.260Z,3.00
2022-09-28T09:46:55.220Z,8.40
2022-09-28T09:51:05.398Z,4.23
2022-09-28T09:55:30.023Z,3.40
2022-09-28T09:59:33.350Z,4.73
2022-09-28T10:03:38.491Z,5.27
2022-09-28T10:07:46.241Z,4.53
2022-09-28T10:11:49.524Z,2.13
2022-09-28T10:15:53.887Z,2.30
2022-09-28T10:19:56.345Z,4.90
2022-09-28T10:24:01.585Z,2.03
2022-09-28T10:28:05.745Z,2.00
2022-09-28T10:32:19.038Z,2.67
2022-09-28T10:36:20.113Z,2.33
2022-09-28T10:40:46.370Z,1.60
2022-09-28T10:44:56.090Z,2.70
2022-09-28T10:49:04.129Z,3.03
2022-09-28T10:53:19.852Z,3.03
2022-09-28T10:57:35.590Z,1.90
2022-09-28T11:01:36.821Z,2.00
2022-09-28T11:05:39.614Z,3.93
2022-09-28T11:09:44.674Z,1.67
2022-09-28T11:13:49.430Z,1.50
2022-09-28T11:17:50.456Z,2.00
2022-09-28T11:21:51.799Z,2.23
2022-09-28T11:26:07.573Z,3.03
2022-09-28T11:30:27.767Z,2.50
2022-09-28T11:34:54.905Z,3.07
2022-09-28T11:38:57.716Z,2.43
2022-09-28T11:43:09.091Z,2.67
2022-09-28T11:47:42.266Z,2.90
2022-09-28T11:51:45.589Z,2.40
2022-09-28T11:55:59.635Z,2.03
2022-09-28T12:00:10.027Z,1.70
2022-09-28T12:08:29.854Z,1.80
2022-09-28T12:12:34.748Z,1.87
2022-09-28T12:17:11.515Z,2.87
2022-09-28T12:21:12.151Z,2.40
2022-09-28T12:25:16.926Z,3.20
2022-09-28T12:29:21.795Z,2.03
2022-09-28T12:33:23.065Z,2.00
2022-09-28T12:37:36.713Z,1.40
2022-09-28T12:41:41.865Z,4.80
2022-09-28T12:46:13.970Z,1.93
2022-09-28T12:50:38.522Z,1.20
2022-09-28T12:54:33.982Z,1.60
2022-09-28T12:58:41.625Z,1.30
2022-09-28T13:03:05.403Z,1.33
2022-09-28T13:07:28.344Z,2.50
2022-09-28T13:11:36.279Z,1.67
2022-09-28T13:15:50.353Z,1.53
2022-09-28T13:20:00.890Z,3.90
2022-09-28T13:24:27.855Z,3.00
2022-09-28T13:28:10.931Z,1.77
2022-09-28T13:32:13.260Z,2.63
2022-09-28T13:36:33.294Z,2.87
2022-09-28T13:41:08.865Z,1.20
2022-09-28T13:45:24.563Z,1.93
2022-09-28T13:49:38.851Z,2.07
2022-09-28T13:54:03.323Z,1.60
2022-09-28T13:58:32.137Z,1.37
2022-09-28T14:02:37.371Z,2.47
2022-09-28T14:06:48.699Z,4.23
2022-09-28T14:10:55.401Z,1.30
2022-09-28T14:14:56.839Z,2.50
2022-09-28T14:19:07.692Z,1.97
2022-09-28T14:23:12.598Z,1.90
2022-09-28T14:27:29.067Z,1.97
2022-09-28T14:31:31.428Z,3.27
2022-09-28T14:35:41.024Z,2.63
2022-09-28T14:40:05.199Z,1.80
2022-09-28T14:44:09.050Z,1.60
2022-09-28T14:48:14.710Z,1.07
2022-09-28T14:52:18.795Z,1.83
2022-09-28T14:56:20.638Z,1.30
2022-09-28T15:00:25.413Z,2.47
2022-09-28T15:04:29.230Z,1.57
2022-09-28T15:08:38.438Z,3.80
2022-09-28T15:12:42.987Z,2.43
2022-09-28T15:16:44.531Z,1.93
2022-09-28T15:20:48.468Z,1.50
2022-09-28T15:25:02.219Z,1.40
2022-09-28T15:29:04.431Z,2.07
2022-09-28T15:33:23.907Z,2.07
2022-09-28T15:37:28.806Z,1.83
2022-09-28T15:41:30.623Z,0.90
2022-09-28T15:45:37.981Z,0.97
2022-09-28T15:49:59.763Z,3.73
2022-09-28T15:54:13.166Z,1.07
2022-09-28T15:58:19.866Z,1.30
2022-09-28T16:02:25.026Z,0.97
2022-09-28T16:06:26.217Z,1.90
2022-09-28T16:10:31.529Z,1.17
2022-09-28T16:14:32.613Z,2.40
2022-09-28T16:18:37.367Z,1.27
2022-09-28T16:22:42.375Z,1.57
2022-09-28T16:26:43.871Z,1.40
2022-09-28T16:31:01.128Z,1.50
2022-09-28T16:35:20.788Z,1.87
2022-09-28T16:39:21.864Z,2.53
2022-09-28T16:43:29.875Z,7.47
2022-09-28T16:47:33.426Z,6.53
2022-09-28T16:51:34.871Z,6.10
2022-09-28T16:55:40.619Z,5.23
2022-09-28T16:59:41.197Z,4.00
2022-09-28T17:03:44.786Z,4.97
2022-09-28T17:07:51.912Z,2.00
2022-09-28T17:11:54.987Z,2.97
2022-09-28T17:15:56.982Z,3.37
2022-09-28T17:19:59.418Z,3.73
2022-09-28T17:24:00.862Z,3.03
2022-09-28T17:28:02.570Z,5.40
2022-09-28T17:32:07.617Z,4.80
2022-09-28T17:36:11.824Z,6.83
2022-09-28T17:40:23.753Z,6.17
2022-09-28T17:44:24.847Z,4.87
2022-09-28T17:48:27.908Z,7.10
2022-09-28T17:52:30.138Z,43.08
2022-09-28T17:56:33.845Z,23.63
2022-09-28T18:00:38.067Z,14.97
2022-09-28T18:04:51.850Z,9.30
2022-09-28T18:08:43.217Z,8.00
2022-09-28T18:12:46.113Z,5.73
2022-09-28T18:16:48.383Z,10.87
2022-09-28T18:20:50.677Z,18.20
2022-09-28T18:24:51.669Z,14.95
2022-09-28T18:28:56.210Z,10.60
2022-09-28T18:32:58.145Z,11.23
2022-09-28T18:37:01.267Z,9.33
2022-09-28T18:41:11.258Z,9.53
2022-09-28T18:45:14.878Z,9.70
2022-09-28T18:49:17.451Z,11.97
2022-09-28T18:53:19.573Z,10.50
2022-09-28T18:57:20.886Z,8.93
2022-09-28T19:01:31.104Z,8.37
2022-09-28T19:05:26.899Z,10.53
2022-09-28T19:09:28.912Z,10.33
2022-09-28T19:13:32.998Z,10.40
2022-09-28T19:17:35.819Z,9.93
2022-09-28T19:21:37.953Z,10.03
2022-09-28T19:25:40.484Z,9.83
2022-09-28T19:29:42.560Z,11.10
2022-09-28T19:33:45.669Z,9.00
2022-09-28T19:37:48.681Z,9.27
2022-09-28T19:41:50.585Z,6.63
2022-09-28T19:45:54.731Z,7.33
2022-09-28T19:49:55.913Z,6.23
2022-09-28T19:53:58.222Z,5.63
2022-09-28T19:58:01.610Z,6.65
2022-09-28T20:02:03.566Z,5.97
2022-09-28T20:06:05.929Z,5.70
2022-09-28T20:10:10.494Z,7.00
2022-09-28T20:14:17.897Z,7.60
2022-09-28T20:18:19.991Z,8.77
2022-09-28T20:22:21.141Z,4.87
2022-09-28T20:26:23.203Z,5.87
2022-09-28T20:30:24.222Z,4.23
2022-09-28T20:34:25.562Z,4.40
2022-09-28T20:38:26.917Z,4.27
2022-09-28T20:42:29.995Z,4.00
2022-09-28T20:46:31.172Z,4.47
2022-09-28T20:50:33.336Z,3.43
2022-09-28T20:54:34.531Z,3.50
2022-09-28T20:58:39.041Z,3.40
2022-09-28T21:02:40.306Z,4.17
2022-09-28T21:06:41.872Z,4.13
2022-09-28T21:10:43.823Z,4.77
2022-09-28T21:14:45.470Z,4.30
2022-09-28T21:18:47.394Z,4.57
2022-09-28T21:22:48.481Z,6.30
2022-09-28T21:26:49.597Z,4.60
2022-09-28T21:30:51.031Z,5.73
2022-09-28T21:34:52.486Z,6.00
2022-09-28T21:38:55.473Z,7.17
2022-09-28T21:42:56.631Z,7.50
2022-09-28T21:46:57.682Z,5.40
2022-09-28T21:51:04.192Z,5.77
2022-09-28T21:55:06.039Z,5.93
2022-09-28T21:59:07.124Z,6.10
2022-09-28T22:03:08.539Z,6.97
2022-09-28T22:07:09.693Z,7.03
2022-09-28T22:11:13.343Z,6.20
2022-09-28T22:15:14.381Z,7.47
2022-09-28T22:19:15.598Z,7.20
2022-09-28T22:23:16.485Z,7.07
2022-09-28T22:27:17.863Z,7.53
2022-09-28T22:31:22.301Z,6.43
2022-09-28T22:35:23.412Z,7.63
2022-09-28T22:39:24.876Z,8.70
2022-09-28T22:43:26.270Z,9.20
2022-09-28T22:47:27.340Z,8.17
2022-09-28T22:51:29.662Z,7.37
2022-09-28T22:55:32.798Z,9.63
2022-09-28T22:59:33.748Z,4.33
2022-09-28T23:03:35.233Z,6.60
2022-09-28T23:07:36.269Z,4.70
2022-09-28T23:11:37.321Z,6.63
2022-09-28T23:15:38.332Z,7.53
2022-09-28T23:19:39.313Z,12.47
2022-09-28T23:23:41.397Z,10.20
2022-09-28T23:27:50.018Z,9.23
2022-09-28T23:31:51.054Z,7.47
2022-09-28T23:35:52.123Z,9.00
2022-09-28T23:39:53.700Z,8.13
2022-09-28T23:43:54.751Z,8.37
2022-09-28T23:47:56.152Z,8.63
2022-09-28T23:51:57.179Z,5.80
2022-09-28T23:55:58.245Z,6.70
2022-09-28T23:59:59.696Z,6.37
